This is the latest recevied weather packets stored in our database for station/object KD4WLE. If no packets are shown the sender has not sent any weather packets the latest 10 day(s).
| Time | Temp. | Humidity | Pressure | Rain* | Wind** | Luminosity | Snow |
|---|---|---|---|---|---|---|---|
| 1777221492 | 30.56° C | 57% | 1012 hPa | 0 mm | - | 386 W/m² | - |
| 1777221189 | 30.56° C | 60% | 1012 hPa | 0 mm | - | 800 W/m² | - |
| 1777220885 | 30° C | 59% | 1012.2 hPa | 0 mm | - | 791 W/m² | - |
| 1777220581 | 30.56° C | 57% | 1012.2 hPa | 0 mm | - | 789 W/m² | - |
| 1777220276 | 29.44° C | 60% | 1012.2 hPa | 0 mm | - | 771 W/m² | - |
| 1777219971 | 28.89° C | 62% | 1012.3 hPa | 0 mm | - | 756 W/m² | - |
| 1777219669 | 29.44° C | 63% | 1012.1 hPa | 0 mm | - | 777 W/m² | - |
| 1777219366 | 30.56° C | 60% | 1012.3 hPa | 0 mm | - | 158 W/m² | - |
| 1777219063 | 29.44° C | 65% | 1012.2 hPa | 0 mm | - | 788 W/m² | - |
| 1777218758 | 28.89° C | 66% | 1012.3 hPa | 0 mm | - | 743 W/m² | - |
| 1777218454 | 28.89° C | 66% | 1012.5 hPa | 0 mm | - | 722 W/m² | - |
| 1777218150 | 28.33° C | 68% | 1012.3 hPa | 0 mm | - | 723 W/m² | - |
| 1777217847 | 27.22° C | 71% | 1012.6 hPa | 0 mm | - | 735 W/m² | - |
| 1777217541 | 26.67° C | 72% | 1012.5 hPa | 0 mm | - | 111 W/m² | - |
| 1777217238 | 26.67° C | 73% | 1012.7 hPa | 0 mm | - | 141 W/m² | - |
| 1777216935 | 26.67° C | 74% | 1012.7 hPa | 0 mm | - | 150 W/m² | - |
| 1777216631 | 28.33° C | 71% | 1012.7 hPa | 0 mm | - | 158 W/m² | - |
| 1777216328 | 28.89° C | 68% | 1012.8 hPa | 0 mm | - | 744 W/m² | - |
| 1777216026 | 28.33° C | 71% | 1012.8 hPa | 0 mm | - | 686 W/m² | - |
| 1777215722 | 28.33° C | 71% | 1012.8 hPa | 0 mm | - | 655 W/m² | - |
| 1777215416 | 27.78° C | 72% | 1013 hPa | 0 mm | - | 633 W/m² | - |
| 1777215108 | 27.78° C | 72% | 1012.9 hPa | 0 mm | - | 606 W/m² | - |
| 1777214802 | 27.78° C | 74% | 1013.2 hPa | 0 mm | - | 630 W/m² | - |
| 1777214497 | 27.78° C | 74% | 1012.9 hPa | 0 mm | - | 603 W/m² | - |
| 1777214192 | 27.78° C | 75% | 1013.1 hPa | 0 mm | - | 610 W/m² | - |
* Rain latest hour (hover to see other rain measurements)
** Current wind speed in m/s (hover to see current wind gust speed)